sensor_id;sensor_type;location;lat;lon;timestamp;P1;durP1;ratioP1;P2;durP2;ratioP2
51995;SDS011;38010;53.264;6.592;2022-07-26T00:00:27;2.92;;;1.20;;
51995;SDS011;38010;53.264;6.592;2022-07-26T00:02:53;4.38;;;1.25;;
51995;SDS011;38010;53.264;6.592;2022-07-26T00:05:18;3.22;;;1.20;;
51995;SDS011;38010;53.264;6.592;2022-07-26T00:07:44;2.72;;;1.02;;
51995;SDS011;38010;53.264;6.592;2022-07-26T00:10:11;4.43;;;1.20;;
51995;SDS011;38010;53.264;6.592;2022-07-26T00:12:37;3.53;;;1.20;;
51995;SDS011;38010;53.264;6.592;2022-07-26T00:15:04;3.83;;;1.17;;
51995;SDS011;38010;53.264;6.592;2022-07-26T00:17:32;3.13;;;1.00;;
51995;SDS011;38010;53.264;6.592;2022-07-26T00:19:58;3.58;;;1.33;;
51995;SDS011;38010;53.264;6.592;2022-07-26T00:22:23;4.00;;;1.27;;
51995;SDS011;38010;53.264;6.592;2022-07-26T00:24:58;3.35;;;0.80;;
51995;SDS011;38010;53.264;6.592;2022-07-26T00:27:24;2.47;;;1.00;;
51995;SDS011;38010;53.264;6.592;2022-07-26T00:29:49;4.20;;;1.00;;
51995;SDS011;38010;53.264;6.592;2022-07-26T00:32:15;3.17;;;1.30;;
51995;SDS011;38010;53.264;6.592;2022-07-26T00:34:41;2.55;;;0.98;;
51995;SDS011;38010;53.264;6.592;2022-07-26T00:37:06;4.55;;;1.52;;
51995;SDS011;38010;53.264;6.592;2022-07-26T00:39:32;2.17;;;0.77;;
51995;SDS011;38010;53.264;6.592;2022-07-26T00:41:57;3.08;;;1.00;;
51995;SDS011;38010;53.264;6.592;2022-07-26T00:44:23;2.03;;;0.80;;
51995;SDS011;38010;53.264;6.592;2022-07-26T00:46:49;1.85;;;0.88;;
51995;SDS011;38010;53.264;6.592;2022-07-26T00:49:14;2.65;;;0.75;;
51995;SDS011;38010;53.264;6.592;2022-07-26T00:51:40;2.65;;;0.88;;
51995;SDS011;38010;53.264;6.592;2022-07-26T00:54:06;2.08;;;1.05;;
51995;SDS011;38010;53.264;6.592;2022-07-26T00:56:32;2.42;;;0.88;;
51995;SDS011;38010;53.264;6.592;2022-07-26T00:58:59;4.45;;;1.25;;
51995;SDS011;38010;53.264;6.592;2022-07-26T01:01:25;2.75;;;0.75;;
51995;SDS011;38010;53.264;6.592;2022-07-26T01:03:51;3.28;;;1.00;;
51995;SDS011;38010;53.264;6.592;2022-07-26T01:06:18;2.38;;;0.90;;
51995;SDS011;38010;53.264;6.592;2022-07-26T01:08:45;4.18;;;1.27;;
51995;SDS011;38010;53.264;6.592;2022-07-26T01:11:11;1.88;;;0.98;;
51995;SDS011;38010;53.264;6.592;2022-07-26T01:13:44;1.27;;;0.80;;
51995;SDS011;38010;53.264;6.592;2022-07-26T01:16:11;3.38;;;1.13;;
51995;SDS011;38010;53.264;6.592;2022-07-26T01:18:37;2.35;;;1.00;;
51995;SDS011;38010;53.264;6.592;2022-07-26T01:21:02;2.90;;;0.85;;
51995;SDS011;38010;53.264;6.592;2022-07-26T01:23:32;3.00;;;1.00;;
51995;SDS011;38010;53.264;6.592;2022-07-26T01:25:58;1.60;;;0.73;;
51995;SDS011;38010;53.264;6.592;2022-07-26T01:28:24;1.60;;;0.80;;
51995;SDS011;38010;53.264;6.592;2022-07-26T01:30:50;2.83;;;0.80;;
51995;SDS011;38010;53.264;6.592;2022-07-26T01:33:16;3.28;;;1.00;;
51995;SDS011;38010;53.264;6.592;2022-07-26T01:35:41;2.67;;;0.75;;
51995;SDS011;38010;53.264;6.592;2022-07-26T01:38:07;3.30;;;1.10;;
51995;SDS011;38010;53.264;6.592;2022-07-26T01:40:33;3.28;;;1.20;;
51995;SDS011;38010;53.264;6.592;2022-07-26T01:42:58;3.15;;;0.80;;
51995;SDS011;38010;53.264;6.592;2022-07-26T01:45:24;1.85;;;0.70;;
51995;SDS011;38010;53.264;6.592;2022-07-26T01:47:49;1.80;;;0.82;;
51995;SDS011;38010;53.264;6.592;2022-07-26T01:50:16;2.47;;;0.90;;
51995;SDS011;38010;53.264;6.592;2022-07-26T01:52:42;2.53;;;0.88;;
51995;SDS011;38010;53.264;6.592;2022-07-26T01:55:08;1.35;;;0.68;;
51995;SDS011;38010;53.264;6.592;2022-07-26T01:57:34;1.80;;;0.90;;
51995;SDS011;38010;53.264;6.592;2022-07-26T02:00:00;1.70;;;0.70;;
51995;SDS011;38010;53.264;6.592;2022-07-26T02:02:26;1.67;;;0.80;;
51995;SDS011;38010;53.264;6.592;2022-07-26T02:04:51;1.50;;;0.63;;
51995;SDS011;38010;53.264;6.592;2022-07-26T02:07:24;1.40;;;0.57;;
51995;SDS011;38010;53.264;6.592;2022-07-26T02:09:51;1.40;;;0.60;;
51995;SDS011;38010;53.264;6.592;2022-07-26T02:12:16;1.80;;;0.85;;
51995;SDS011;38010;53.264;6.592;2022-07-26T02:14:42;1.88;;;0.68;;
51995;SDS011;38010;53.264;6.592;2022-07-26T02:17:08;1.02;;;0.52;;
51995;SDS011;38010;53.264;6.592;2022-07-26T02:19:34;1.70;;;0.70;;
51995;SDS011;38010;53.264;6.592;2022-07-26T02:22:00;0.90;;;0.68;;
51995;SDS011;38010;53.264;6.592;2022-07-26T02:24:26;2.28;;;1.00;;
51995;SDS011;38010;53.264;6.592;2022-07-26T02:26:53;1.52;;;0.70;;
51995;SDS011;38010;53.264;6.592;2022-07-26T02:29:19;2.20;;;0.90;;
51995;SDS011;38010;53.264;6.592;2022-07-26T02:31:45;3.30;;;0.60;;
51995;SDS011;38010;53.264;6.592;2022-07-26T02:34:10;2.05;;;0.77;;
51995;SDS011;38010;53.264;6.592;2022-07-26T02:36:36;1.27;;;0.65;;
51995;SDS011;38010;53.264;6.592;2022-07-26T02:39:02;2.20;;;0.65;;
51995;SDS011;38010;53.264;6.592;2022-07-26T02:41:28;1.00;;;0.60;;
51995;SDS011;38010;53.264;6.592;2022-07-26T02:43:54;1.35;;;0.70;;
51995;SDS011;38010;53.264;6.592;2022-07-26T02:46:20;2.03;;;0.70;;
51995;SDS011;38010;53.264;6.592;2022-07-26T02:48:45;1.17;;;0.70;;
51995;SDS011;38010;53.264;6.592;2022-07-26T02:51:11;2.05;;;0.80;;
51995;SDS011;38010;53.264;6.592;2022-07-26T02:53:37;1.45;;;0.68;;
51995;SDS011;38010;53.264;6.592;2022-07-26T02:56:02;1.85;;;0.70;;
51995;SDS011;38010;53.264;6.592;2022-07-26T02:58:28;2.45;;;0.80;;
51995;SDS011;38010;53.264;6.592;2022-07-26T03:00:54;1.40;;;0.50;;
51995;SDS011;38010;53.264;6.592;2022-07-26T03:03:19;3.47;;;0.70;;
51995;SDS011;38010;53.264;6.592;2022-07-26T03:05:45;2.42;;;0.70;;
51995;SDS011;38010;53.264;6.592;2022-07-26T03:08:11;3.10;;;0.90;;
51995;SDS011;38010;53.264;6.592;2022-07-26T03:10:37;1.20;;;0.55;;
51995;SDS011;38010;53.264;6.592;2022-07-26T03:13:03;2.03;;;0.52;;
51995;SDS011;38010;53.264;6.592;2022-07-26T03:15:28;3.10;;;0.77;;
51995;SDS011;38010;53.264;6.592;2022-07-26T03:17:54;2.55;;;0.80;;
51995;SDS011;38010;53.264;6.592;2022-07-26T03:20:20;2.53;;;1.00;;
51995;SDS011;38010;53.264;6.592;2022-07-26T03:22:45;1.15;;;0.57;;
51995;SDS011;38010;53.264;6.592;2022-07-26T03:25:11;2.60;;;0.52;;
51995;SDS011;38010;53.264;6.592;2022-07-26T03:27:37;2.05;;;0.50;;
51995;SDS011;38010;53.264;6.592;2022-07-26T03:30:03;1.13;;;0.45;;
51995;SDS011;38010;53.264;6.592;2022-07-26T03:32:29;2.15;;;0.50;;
51995;SDS011;38010;53.264;6.592;2022-07-26T03:34:55;0.35;;;0.30;;
51995;SDS011;38010;53.264;6.592;2022-07-26T03:37:21;1.52;;;0.80;;
51995;SDS011;38010;53.264;6.592;2022-07-26T03:39:47;2.25;;;0.60;;
51995;SDS011;38010;53.264;6.592;2022-07-26T03:42:13;1.60;;;0.60;;
51995;SDS011;38010;53.264;6.592;2022-07-26T03:44:39;1.13;;;0.60;;
51995;SDS011;38010;53.264;6.592;2022-07-26T03:47:04;1.30;;;0.52;;
51995;SDS011;38010;53.264;6.592;2022-07-26T03:49:30;1.73;;;0.70;;
51995;SDS011;38010;53.264;6.592;2022-07-26T03:51:56;1.13;;;0.47;;
51995;SDS011;38010;53.264;6.592;2022-07-26T03:54:21;4.13;;;0.60;;
51995;SDS011;38010;53.264;6.592;2022-07-26T03:56:47;1.73;;;0.52;;
51995;SDS011;38010;53.264;6.592;2022-07-26T03:59:13;1.60;;;0.40;;
51995;SDS011;38010;53.264;6.592;2022-07-26T04:01:39;1.63;;;0.60;;
51995;SDS011;38010;53.264;6.592;2022-07-26T04:04:06;0.75;;;0.40;;
51995;SDS011;38010;53.264;6.592;2022-07-26T04:06:33;1.42;;;0.32;;
51995;SDS011;38010;53.264;6.592;2022-07-26T04:08:59;1.88;;;0.50;;
51995;SDS011;38010;53.264;6.592;2022-07-26T04:11:25;0.88;;;0.43;;
51995;SDS011;38010;53.264;6.592;2022-07-26T04:13:51;1.17;;;0.40;;
51995;SDS011;38010;53.264;6.592;2022-07-26T04:16:16;2.17;;;0.77;;
51995;SDS011;38010;53.264;6.592;2022-07-26T04:18:42;1.75;;;0.50;;
51995;SDS011;38010;53.264;6.592;2022-07-26T04:21:08;1.80;;;0.60;;
51995;SDS011;38010;53.264;6.592;2022-07-26T04:23:33;0.75;;;0.47;;
51995;SDS011;38010;53.264;6.592;2022-07-26T04:25:59;1.17;;;0.40;;
51995;SDS011;38010;53.264;6.592;2022-07-26T04:28:25;0.90;;;0.30;;
51995;SDS011;38010;53.264;6.592;2022-07-26T04:30:53;0.95;;;0.55;;
51995;SDS011;38010;53.264;6.592;2022-07-26T04:33:19;1.75;;;0.50;;
51995;SDS011;38010;53.264;6.592;2022-07-26T04:35:45;1.33;;;0.45;;
51995;SDS011;38010;53.264;6.592;2022-07-26T04:38:10;1.27;;;0.40;;
51995;SDS011;38010;53.264;6.592;2022-07-26T04:40:36;1.23;;;0.50;;
51995;SDS011;38010;53.264;6.592;2022-07-26T04:43:02;1.40;;;0.40;;
51995;SDS011;38010;53.264;6.592;2022-07-26T04:45:29;1.83;;;0.43;;
51995;SDS011;38010;53.264;6.592;2022-07-26T04:47:55;0.40;;;0.30;;
51995;SDS011;38010;53.264;6.592;2022-07-26T04:50:21;1.40;;;0.55;;
51995;SDS011;38010;53.264;6.592;2022-07-26T04:52:48;1.40;;;0.50;;
51995;SDS011;38010;53.264;6.592;2022-07-26T04:55:15;1.20;;;0.40;;
51995;SDS011;38010;53.264;6.592;2022-07-26T04:57:41;0.80;;;0.50;;
51995;SDS011;38010;53.264;6.592;2022-07-26T05:00:09;1.33;;;0.40;;
51995;SDS011;38010;53.264;6.592;2022-07-26T05:02:36;0.90;;;0.40;;
51995;SDS011;38010;53.264;6.592;2022-07-26T05:05:03;2.17;;;0.40;;
51995;SDS011;38010;53.264;6.592;2022-07-26T05:07:38;3.08;;;0.65;;
51995;SDS011;38010;53.264;6.592;2022-07-26T05:10:10;1.33;;;0.55;;
51995;SDS011;38010;53.264;6.592;2022-07-26T05:12:37;0.30;;;0.20;;
51995;SDS011;38010;53.264;6.592;2022-07-26T05:15:04;2.78;;;0.50;;
51995;SDS011;38010;53.264;6.592;2022-07-26T05:17:31;1.75;;;0.47;;
51995;SDS011;38010;53.264;6.592;2022-07-26T05:19:57;2.03;;;0.35;;
51995;SDS011;38010;53.264;6.592;2022-07-26T05:22:23;1.63;;;0.50;;
51995;SDS011;38010;53.264;6.592;2022-07-26T05:24:48;0.90;;;0.30;;
51995;SDS011;38010;53.264;6.592;2022-07-26T05:27:14;1.15;;;0.40;;
51995;SDS011;38010;53.264;6.592;2022-07-26T05:29:40;1.42;;;0.40;;
51995;SDS011;38010;53.264;6.592;2022-07-26T05:32:05;2.65;;;0.63;;
51995;SDS011;38010;53.264;6.592;2022-07-26T05:34:31;3.22;;;0.70;;
51995;SDS011;38010;53.264;6.592;2022-07-26T05:36:57;3.95;;;1.00;;
51995;SDS011;38010;53.264;6.592;2022-07-26T05:39:22;3.88;;;0.82;;
51995;SDS011;38010;53.264;6.592;2022-07-26T05:41:48;2.50;;;0.60;;
51995;SDS011;38010;53.264;6.592;2022-07-26T05:44:14;4.28;;;0.88;;
51995;SDS011;38010;53.264;6.592;2022-07-26T05:46:39;6.90;;;1.13;;
51995;SDS011;38010;53.264;6.592;2022-07-26T05:49:05;6.35;;;0.73;;
51995;SDS011;38010;53.264;6.592;2022-07-26T05:51:31;2.85;;;0.57;;
51995;SDS011;38010;53.264;6.592;2022-07-26T05:53:57;6.13;;;0.70;;
51995;SDS011;38010;53.264;6.592;2022-07-26T05:56:23;2.42;;;0.60;;
51995;SDS011;38010;53.264;6.592;2022-07-26T05:58:49;3.45;;;0.65;;
51995;SDS011;38010;53.264;6.592;2022-07-26T06:01:15;2.30;;;0.47;;
51995;SDS011;38010;53.264;6.592;2022-07-26T06:03:40;5.05;;;0.70;;
51995;SDS011;38010;53.264;6.592;2022-07-26T06:06:06;1.52;;;0.50;;
51995;SDS011;38010;53.264;6.592;2022-07-26T06:08:32;1.92;;;0.60;;
51995;SDS011;38010;53.264;6.592;2022-07-26T06:10:58;2.45;;;0.63;;
51995;SDS011;38010;53.264;6.592;2022-07-26T06:13:24;2.00;;;0.50;;
51995;SDS011;38010;53.264;6.592;2022-07-26T06:15:49;3.63;;;0.68;;
51995;SDS011;38010;53.264;6.592;2022-07-26T06:18:15;3.75;;;0.65;;
51995;SDS011;38010;53.264;6.592;2022-07-26T06:20:42;0.75;;;0.40;;
51995;SDS011;38010;53.264;6.592;2022-07-26T06:23:09;2.72;;;0.60;;
51995;SDS011;38010;53.264;6.592;2022-07-26T06:25:35;1.90;;;0.35;;
51995;SDS011;38010;53.264;6.592;2022-07-26T06:28:02;1.73;;;0.45;;
51995;SDS011;38010;53.264;6.592;2022-07-26T06:30:29;0.57;;;0.38;;
51995;SDS011;38010;53.264;6.592;2022-07-26T06:32:54;1.30;;;0.50;;
51995;SDS011;38010;53.264;6.592;2022-07-26T06:35:20;2.03;;;0.57;;
51995;SDS011;38010;53.264;6.592;2022-07-26T06:37:48;1.08;;;0.40;;
51995;SDS011;38010;53.264;6.592;2022-07-26T06:40:14;1.27;;;0.40;;
51995;SDS011;38010;53.264;6.592;2022-07-26T06:42:39;0.70;;;0.30;;
51995;SDS011;38010;53.264;6.592;2022-07-26T06:45:05;2.40;;;0.63;;
51995;SDS011;38010;53.264;6.592;2022-07-26T06:47:31;1.35;;;0.50;;
51995;SDS011;38010;53.264;6.592;2022-07-26T06:49:57;1.73;;;0.45;;
51995;SDS011;38010;53.264;6.592;2022-07-26T06:52:23;1.10;;;0.40;;
51995;SDS011;38010;53.264;6.592;2022-07-26T06:54:49;0.57;;;0.30;;
51995;SDS011;38010;53.264;6.592;2022-07-26T06:57:15;2.45;;;0.32;;
51995;SDS011;38010;53.264;6.592;2022-07-26T06:59:40;0.93;;;0.40;;
51995;SDS011;38010;53.264;6.592;2022-07-26T07:02:06;0.77;;;0.30;;
51995;SDS011;38010;53.264;6.592;2022-07-26T07:04:32;1.05;;;0.30;;
51995;SDS011;38010;53.264;6.592;2022-07-26T07:06:59;1.65;;;0.40;;
51995;SDS011;38010;53.264;6.592;2022-07-26T07:09:33;0.68;;;0.45;;
51995;SDS011;38010;53.264;6.592;2022-07-26T07:12:00;2.28;;;0.32;;
51995;SDS011;38010;53.264;6.592;2022-07-26T07:14:27;2.35;;;0.30;;
51995;SDS011;38010;53.264;6.592;2022-07-26T07:16:53;1.48;;;0.50;;
51995;SDS011;38010;53.264;6.592;2022-07-26T07:19:20;0.88;;;0.30;;
51995;SDS011;38010;53.264;6.592;2022-07-26T07:21:46;1.00;;;0.40;;
51995;SDS011;38010;53.264;6.592;2022-07-26T07:24:12;1.08;;;0.40;;
51995;SDS011;38010;53.264;6.592;2022-07-26T07:26:38;1.52;;;0.30;;
51995;SDS011;38010;53.264;6.592;2022-07-26T07:29:05;1.15;;;0.40;;
51995;SDS011;38010;53.264;6.592;2022-07-26T07:31:31;0.90;;;0.28;;
51995;SDS011;38010;53.264;6.592;2022-07-26T07:33:57;0.75;;;0.30;;
51995;SDS011;38010;53.264;6.592;2022-07-26T07:36:22;1.10;;;0.30;;
51995;SDS011;38010;53.264;6.592;2022-07-26T07:38:48;1.27;;;0.30;;
51995;SDS011;38010;53.264;6.592;2022-07-26T07:41:14;1.77;;;0.30;;
51995;SDS011;38010;53.264;6.592;2022-07-26T07:43:39;2.05;;;0.43;;
51995;SDS011;38010;53.264;6.592;2022-07-26T07:46:05;2.15;;;0.38;;
51995;SDS011;38010;53.264;6.592;2022-07-26T07:48:31;1.25;;;0.40;;
51995;SDS011;38010;53.264;6.592;2022-07-26T07:50:56;0.50;;;0.30;;
51995;SDS011;38010;53.264;6.592;2022-07-26T07:53:22;1.08;;;0.30;;
51995;SDS011;38010;53.264;6.592;2022-07-26T07:55:48;1.88;;;0.55;;
51995;SDS011;38010;53.264;6.592;2022-07-26T07:58:14;1.38;;;0.40;;
51995;SDS011;38010;53.264;6.592;2022-07-26T08:00:40;1.27;;;0.30;;
51995;SDS011;38010;53.264;6.592;2022-07-26T08:03:06;1.17;;;0.32;;
51995;SDS011;38010;53.264;6.592;2022-07-26T08:05:32;1.52;;;0.40;;
51995;SDS011;38010;53.264;6.592;2022-07-26T08:07:58;1.75;;;0.40;;
51995;SDS011;38010;53.264;6.592;2022-07-26T08:10:23;0.30;;;0.30;;
51995;SDS011;38010;53.264;6.592;2022-07-26T08:12:49;1.83;;;0.38;;
51995;SDS011;38010;53.264;6.592;2022-07-26T08:15:15;2.05;;;0.50;;
51995;SDS011;38010;53.264;6.592;2022-07-26T08:17:40;0.98;;;0.40;;
51995;SDS011;38010;53.264;6.592;2022-07-26T08:20:06;1.05;;;0.35;;
51995;SDS011;38010;53.264;6.592;2022-07-26T08:22:32;2.28;;;0.50;;
51995;SDS011;38010;53.264;6.592;2022-07-26T08:24:58;0.65;;;0.30;;
51995;SDS011;38010;53.264;6.592;2022-07-26T08:27:24;2.60;;;0.60;;
51995;SDS011;38010;53.264;6.592;2022-07-26T08:29:50;0.98;;;0.50;;
51995;SDS011;38010;53.264;6.592;2022-07-26T08:32:15;1.50;;;0.50;;
51995;SDS011;38010;53.264;6.592;2022-07-26T08:34:41;1.13;;;0.47;;
51995;SDS011;38010;53.264;6.592;2022-07-26T08:37:07;1.60;;;0.52;;
51995;SDS011;38010;53.264;6.592;2022-07-26T08:39:32;3.10;;;0.80;;
51995;SDS011;38010;53.264;6.592;2022-07-26T08:41:58;0.77;;;0.40;;
51995;SDS011;38010;53.264;6.592;2022-07-26T08:44:27;1.27;;;0.50;;
51995;SDS011;38010;53.264;6.592;2022-07-26T08:46:53;1.08;;;0.40;;
51995;SDS011;38010;53.264;6.592;2022-07-26T08:49:18;2.22;;;0.60;;
51995;SDS011;38010;53.264;6.592;2022-07-26T08:51:44;1.55;;;0.47;;
51995;SDS011;38010;53.264;6.592;2022-07-26T08:54:11;2.92;;;0.45;;
51995;SDS011;38010;53.264;6.592;2022-07-26T08:56:48;1.25;;;0.50;;
51995;SDS011;38010;53.264;6.592;2022-07-26T08:59:16;1.70;;;0.50;;
51995;SDS011;38010;53.264;6.592;2022-07-26T09:01:52;2.53;;;0.55;;
51995;SDS011;38010;53.264;6.592;2022-07-26T09:04:27;1.90;;;0.65;;
51995;SDS011;38010;53.264;6.592;2022-07-26T09:06:56;2.40;;;0.60;;
51995;SDS011;38010;53.264;6.592;2022-07-26T09:09:23;1.75;;;0.60;;
51995;SDS011;38010;53.264;6.592;2022-07-26T09:11:49;1.42;;;0.50;;
51995;SDS011;38010;53.264;6.592;2022-07-26T09:14:15;2.22;;;0.55;;
51995;SDS011;38010;53.264;6.592;2022-07-26T09:16:40;4.03;;;0.60;;
51995;SDS011;38010;53.264;6.592;2022-07-26T09:19:20;1.15;;;0.40;;
51995;SDS011;38010;53.264;6.592;2022-07-26T09:21:47;1.08;;;0.50;;
51995;SDS011;38010;53.264;6.592;2022-07-26T09:27:09;1.90;;;0.70;;
51995;SDS011;38010;53.264;6.592;2022-07-26T09:32:21;1.15;;;0.52;;
51995;SDS011;38010;53.264;6.592;2022-07-26T09:37:35;1.90;;;0.80;;
51995;SDS011;38010;53.264;6.592;2022-07-26T09:40:05;2.58;;;0.70;;
51995;SDS011;38010;53.264;6.592;2022-07-26T09:42:33;2.30;;;0.80;;
51995;SDS011;38010;53.264;6.592;2022-07-26T09:44:59;3.45;;;0.88;;
51995;SDS011;38010;53.264;6.592;2022-07-26T09:47:35;4.18;;;1.02;;
51995;SDS011;38010;53.264;6.592;2022-07-26T09:53:02;1.60;;;0.68;;
51995;SDS011;38010;53.264;6.592;2022-07-26T09:55:29;3.20;;;0.90;;
51995;SDS011;38010;53.264;6.592;2022-07-26T09:57:55;2.05;;;0.60;;
51995;SDS011;38010;53.264;6.592;2022-07-26T10:00:21;1.80;;;0.60;;
51995;SDS011;38010;53.264;6.592;2022-07-26T10:02:49;3.05;;;0.70;;
51995;SDS011;38010;53.264;6.592;2022-07-26T10:05:16;1.73;;;0.60;;
51995;SDS011;38010;53.264;6.592;2022-07-26T10:07:42;2.65;;;0.82;;
51995;SDS011;38010;53.264;6.592;2022-07-26T10:10:13;1.85;;;0.82;;
51995;SDS011;38010;53.264;6.592;2022-07-26T10:12:43;1.85;;;0.73;;
51995;SDS011;38010;53.264;6.592;2022-07-26T10:18:09;2.25;;;0.80;;
51995;SDS011;38010;53.264;6.592;2022-07-26T10:20:55;3.15;;;0.80;;
51995;SDS011;38010;53.264;6.592;2022-07-26T10:23:33;2.78;;;1.13;;
51995;SDS011;38010;53.264;6.592;2022-07-26T10:26:05;4.13;;;1.15;;
51995;SDS011;38010;53.264;6.592;2022-07-26T10:28:33;1.65;;;0.82;;
51995;SDS011;38010;53.264;6.592;2022-07-26T10:33:46;1.45;;;0.50;;
51995;SDS011;38010;53.264;6.592;2022-07-26T10:36:22;2.22;;;0.82;;
51995;SDS011;38010;53.264;6.592;2022-07-26T10:38:57;0.95;;;0.63;;
51995;SDS011;38010;53.264;6.592;2022-07-26T10:41:30;3.33;;;0.70;;
51995;SDS011;38010;53.264;6.592;2022-07-26T10:44:10;2.70;;;0.77;;
51995;SDS011;38010;53.264;6.592;2022-07-26T10:52:11;1.20;;;0.60;;
51995;SDS011;38010;53.264;6.592;2022-07-26T10:57:31;2.38;;;0.70;;
51995;SDS011;38010;53.264;6.592;2022-07-26T11:00:09;1.95;;;0.70;;
51995;SDS011;38010;53.264;6.592;2022-07-26T11:02:42;2.60;;;0.50;;
51995;SDS011;38010;53.264;6.592;2022-07-26T11:05:13;1.80;;;0.80;;
51995;SDS011;38010;53.264;6.592;2022-07-26T11:10:21;1.98;;;0.55;;
51995;SDS011;38010;53.264;6.592;2022-07-26T11:12:56;1.23;;;0.70;;
51995;SDS011;38010;53.264;6.592;2022-07-26T11:15:37;1.75;;;0.50;;
51995;SDS011;38010;53.264;6.592;2022-07-26T11:20:44;2.65;;;0.93;;
51995;SDS011;38010;53.264;6.592;2022-07-26T11:23:24;1.70;;;0.60;;
51995;SDS011;38010;53.264;6.592;2022-07-26T11:28:27;1.20;;;0.73;;
51995;SDS011;38010;53.264;6.592;2022-07-26T11:30:56;3.13;;;0.60;;
51995;SDS011;38010;53.264;6.592;2022-07-26T11:33:36;3.60;;;0.80;;
51995;SDS011;38010;53.264;6.592;2022-07-26T11:36:03;1.52;;;0.60;;
51995;SDS011;38010;53.264;6.592;2022-07-26T11:38:45;2.38;;;0.52;;
51995;SDS011;38010;53.264;6.592;2022-07-26T11:41:17;2.33;;;0.70;;
51995;SDS011;38010;53.264;6.592;2022-07-26T11:43:44;2.08;;;0.60;;
51995;SDS011;38010;53.264;6.592;2022-07-26T11:46:10;1.05;;;0.60;;
51995;SDS011;38010;53.264;6.592;2022-07-26T11:48:36;1.65;;;0.70;;
51995;SDS011;38010;53.264;6.592;2022-07-26T11:51:09;1.33;;;0.50;;
51995;SDS011;38010;53.264;6.592;2022-07-26T11:53:35;1.33;;;0.60;;
51995;SDS011;38010;53.264;6.592;2022-07-26T11:56:09;1.27;;;0.55;;
51995;SDS011;38010;53.264;6.592;2022-07-26T11:58:39;2.60;;;0.65;;
51995;SDS011;38010;53.264;6.592;2022-07-26T12:01:07;0.93;;;0.50;;
51995;SDS011;38010;53.264;6.592;2022-07-26T12:03:34;1.77;;;0.40;;
51995;SDS011;38010;53.264;6.592;2022-07-26T12:06:04;1.75;;;0.60;;
51995;SDS011;38010;53.264;6.592;2022-07-26T12:08:47;0.93;;;0.55;;
51995;SDS011;38010;53.264;6.592;2022-07-26T12:11:21;0.80;;;0.40;;
51995;SDS011;38010;53.264;6.592;2022-07-26T12:13:58;1.30;;;0.60;;
51995;SDS011;38010;53.264;6.592;2022-07-26T12:16:32;1.25;;;0.55;;
51995;SDS011;38010;53.264;6.592;2022-07-26T12:19:04;1.23;;;0.52;;
51995;SDS011;38010;53.264;6.592;2022-07-26T12:24:10;2.30;;;0.60;;
51995;SDS011;38010;53.264;6.592;2022-07-26T12:26:37;1.75;;;0.60;;
51995;SDS011;38010;53.264;6.592;2022-07-26T12:29:03;1.92;;;0.43;;
51995;SDS011;38010;53.264;6.592;2022-07-26T12:32:00;0.80;;;0.50;;
51995;SDS011;38010;53.264;6.592;2022-07-26T12:34:26;0.90;;;0.45;;
51995;SDS011;38010;53.264;6.592;2022-07-26T12:36:52;1.90;;;0.52;;
51995;SDS011;38010;53.264;6.592;2022-07-26T12:39:19;1.73;;;0.70;;
51995;SDS011;38010;53.264;6.592;2022-07-26T12:41:48;1.00;;;0.50;;
51995;SDS011;38010;53.264;6.592;2022-07-26T12:44:15;2.38;;;0.52;;
51995;SDS011;38010;53.264;6.592;2022-07-26T12:46:41;1.35;;;0.50;;
51995;SDS011;38010;53.264;6.592;2022-07-26T12:49:10;2.42;;;0.50;;
51995;SDS011;38010;53.264;6.592;2022-07-26T12:51:36;1.52;;;0.60;;
51995;SDS011;38010;53.264;6.592;2022-07-26T12:54:02;2.72;;;0.60;;
51995;SDS011;38010;53.264;6.592;2022-07-26T12:56:30;3.25;;;0.80;;
51995;SDS011;38010;53.264;6.592;2022-07-26T12:58:56;1.30;;;0.50;;
51995;SDS011;38010;53.264;6.592;2022-07-26T13:01:25;2.15;;;0.70;;
51995;SDS011;38010;53.264;6.592;2022-07-26T13:03:52;4.47;;;0.70;;
51995;SDS011;38010;53.264;6.592;2022-07-26T13:06:19;5.63;;;1.00;;
51995;SDS011;38010;53.264;6.592;2022-07-26T13:08:45;1.50;;;0.50;;
51995;SDS011;38010;53.264;6.592;2022-07-26T13:11:11;1.63;;;0.70;;
51995;SDS011;38010;53.264;6.592;2022-07-26T13:13:36;2.53;;;0.50;;
51995;SDS011;38010;53.264;6.592;2022-07-26T13:16:02;1.88;;;0.68;;
51995;SDS011;38010;53.264;6.592;2022-07-26T13:18:28;2.30;;;0.50;;
51995;SDS011;38010;53.264;6.592;2022-07-26T13:20:55;2.55;;;0.50;;
51995;SDS011;38010;53.264;6.592;2022-07-26T13:23:21;1.30;;;0.60;;
51995;SDS011;38010;53.264;6.592;2022-07-26T13:25:46;1.17;;;0.50;;
51995;SDS011;38010;53.264;6.592;2022-07-26T13:28:12;2.85;;;0.52;;
51995;SDS011;38010;53.264;6.592;2022-07-26T13:30:39;2.20;;;0.70;;
51995;SDS011;38010;53.264;6.592;2022-07-26T13:33:07;1.40;;;0.50;;
51995;SDS011;38010;53.264;6.592;2022-07-26T13:35:34;2.83;;;0.80;;
51995;SDS011;38010;53.264;6.592;2022-07-26T13:38:00;2.50;;;0.80;;
51995;SDS011;38010;53.264;6.592;2022-07-26T13:40:26;1.90;;;0.50;;
51995;SDS011;38010;53.264;6.592;2022-07-26T13:42:52;0.70;;;0.43;;
51995;SDS011;38010;53.264;6.592;2022-07-26T13:45:17;2.25;;;0.70;;
51995;SDS011;38010;53.264;6.592;2022-07-26T13:47:43;2.80;;;0.68;;
51995;SDS011;38010;53.264;6.592;2022-07-26T13:50:09;1.77;;;0.60;;
51995;SDS011;38010;53.264;6.592;2022-07-26T13:52:35;3.17;;;0.82;;
51995;SDS011;38010;53.264;6.592;2022-07-26T13:55:00;0.80;;;0.38;;
51995;SDS011;38010;53.264;6.592;2022-07-26T13:57:26;2.13;;;0.70;;
51995;SDS011;38010;53.264;6.592;2022-07-26T13:59:51;1.40;;;0.45;;
51995;SDS011;38010;53.264;6.592;2022-07-26T14:02:17;1.75;;;0.65;;
51995;SDS011;38010;53.264;6.592;2022-07-26T14:04:43;2.00;;;0.55;;
51995;SDS011;38010;53.264;6.592;2022-07-26T14:07:08;1.98;;;0.50;;
51995;SDS011;38010;53.264;6.592;2022-07-26T14:09:34;1.63;;;0.50;;
51995;SDS011;38010;53.264;6.592;2022-07-26T14:12:00;2.47;;;0.70;;
51995;SDS011;38010;53.264;6.592;2022-07-26T14:14:25;1.10;;;0.80;;
51995;SDS011;38010;53.264;6.592;2022-07-26T14:16:51;0.93;;;0.40;;
51995;SDS011;38010;53.264;6.592;2022-07-26T14:19:17;1.42;;;0.50;;
51995;SDS011;38010;53.264;6.592;2022-07-26T14:21:42;3.40;;;0.60;;
51995;SDS011;38010;53.264;6.592;2022-07-26T14:24:08;1.90;;;0.70;;
51995;SDS011;38010;53.264;6.592;2022-07-26T14:26:33;1.73;;;0.50;;
51995;SDS011;38010;53.264;6.592;2022-07-26T14:28:59;1.17;;;0.55;;
51995;SDS011;38010;53.264;6.592;2022-07-26T14:31:25;1.80;;;0.93;;
51995;SDS011;38010;53.264;6.592;2022-07-26T14:33:51;0.80;;;0.40;;
51995;SDS011;38010;53.264;6.592;2022-07-26T14:36:16;1.65;;;0.60;;
51995;SDS011;38010;53.264;6.592;2022-07-26T14:38:42;1.40;;;0.50;;
51995;SDS011;38010;53.264;6.592;2022-07-26T14:41:08;1.05;;;0.40;;
51995;SDS011;38010;53.264;6.592;2022-07-26T14:43:34;0.98;;;0.40;;
51995;SDS011;38010;53.264;6.592;2022-07-26T14:46:00;1.45;;;0.30;;
51995;SDS011;38010;53.264;6.592;2022-07-26T14:48:27;0.95;;;0.40;;
51995;SDS011;38010;53.264;6.592;2022-07-26T14:50:53;0.63;;;0.30;;
51995;SDS011;38010;53.264;6.592;2022-07-26T14:53:18;1.90;;;0.63;;
51995;SDS011;38010;53.264;6.592;2022-07-26T14:55:44;2.13;;;0.40;;
51995;SDS011;38010;53.264;6.592;2022-07-26T14:58:11;1.50;;;0.68;;
51995;SDS011;38010;53.264;6.592;2022-07-26T15:00:37;0.90;;;0.43;;
51995;SDS011;38010;53.264;6.592;2022-07-26T15:03:02;1.20;;;0.40;;
51995;SDS011;38010;53.264;6.592;2022-07-26T15:05:28;1.02;;;0.40;;
51995;SDS011;38010;53.264;6.592;2022-07-26T15:07:54;1.00;;;0.40;;
51995;SDS011;38010;53.264;6.592;2022-07-26T15:10:20;1.08;;;0.40;;
51995;SDS011;38010;53.264;6.592;2022-07-26T15:12:56;1.25;;;0.50;;
51995;SDS011;38010;53.264;6.592;2022-07-26T15:15:23;1.77;;;0.68;;
51995;SDS011;38010;53.264;6.592;2022-07-26T15:17:49;1.98;;;0.60;;
51995;SDS011;38010;53.264;6.592;2022-07-26T15:20:14;0.95;;;0.50;;
51995;SDS011;38010;53.264;6.592;2022-07-26T15:22:40;0.43;;;0.32;;